Time;durP1;ratioP1;P1;durP2;ratioP2;P2;SDS_P1;SDS_P2;PMS_P1;PMS_P2;Temp;Humidity;BMP_temperature;BMP_pressure;BME280_temperature;BME280_humidity;BME280_pressure;Samples;Min_cycle;Max_cycle;Signal;HPM_P1;HPM_P2
2022/06/23 00:04:25;;;;;;;3.97;3.58;;;;;;;13.39;97.98;96290.56;10493729;28;20223;-54
2022/06/23 00:09:51;;;;;;;3.30;3.00;;;;;;;13.26;98.95;96293.81;10494605;28;20248;-53
2022/06/23 00:15:07;;;;;;;5.43;3.72;;;;;;;13.20;100.00;96302.44;10493365;28;20197;-49
2022/06/23 00:20:18;;;;;;;7.35;3.70;;;;;;;13.20;99.95;96300.63;10493321;28;20234;-50
2022/06/23 00:25:33;;;;;;;4.13;3.72;;;;;;;13.15;100.00;96304.78;10493655;28;20218;-49
2022/06/23 00:30:38;;;;;;;3.67;3.13;;;;;;;13.10;100.00;96310.59;10493540;28;20205;-49
2022/06/23 00:35:39;;;;;;;3.70;3.38;;;;;;;13.01;100.00;96309.06;10493073;28;20195;-50
2022/06/23 00:40:42;;;;;;;5.53;3.90;;;;;;;13.01;100.00;96309.06;10493204;28;20600;-51
2022/06/23 00:46:06;;;;;;;5.90;3.72;;;;;;;12.96;100.00;96324.56;10475415;28;20191;-49
2022/06/23 00:51:14;;;;;;;5.93;3.53;;;;;;;12.87;100.00;96336.19;10475417;28;20207;-50
2022/06/23 00:56:32;;;;;;;5.03;3.85;;;;;;;12.74;100.00;96332.34;10492872;28;20548;-51
2022/06/23 01:01:47;;;;;;;5.35;4.00;;;;;;;12.77;100.00;96333.78;10492328;28;20249;-49
2022/06/23 01:06:50;;;;;;;6.97;3.65;;;;;;;12.71;100.00;96334.50;10496317;28;20199;-51
2022/06/23 01:11:58;;;;;;;5.80;3.55;;;;;;;12.62;100.00;96354.81;10499875;28;20218;-52
2022/06/23 01:17:07;;;;;;;4.53;3.40;;;;;;;12.63;100.00;96349.38;10499042;28;20199;-51
2022/06/23 01:22:19;;;;;;;3.97;3.20;;;;;;;12.59;100.00;96355.97;10481558;28;20235;-53
2022/06/23 01:27:24;;;;;;;5.88;3.60;;;;;;;12.56;100.00;96348.44;10499382;28;20192;-51
2022/06/23 01:32:29;;;;;;;4.68;3.40;;;;;;;12.49;100.00;96345.69;10481764;28;20215;-51
2022/06/23 01:37:38;;;;;;;10.32;3.70;;;;;;;12.36;100.00;96352.53;10481463;28;20240;-49
2022/06/23 01:43:16;;;;;;;7.57;4.15;;;;;;;12.23;100.00;96348.69;10499252;28;20250;-49
2022/06/23 01:54:26;;;;;;;4.90;3.75;;;;;;;12.32;100.00;96349.47;10330204;28;20218;-49
2022/06/23 01:59:47;;;;;;;6.05;3.50;;;;;;;12.31;100.00;96366.22;10465399;28;20203;-49
2022/06/23 02:05:12;;;;;;;4.80;3.72;;;;;;;12.22;100.00;96362.00;10480568;28;20278;-49
2022/06/23 02:10:24;;;;;;;6.13;4.53;;;;;;;12.16;100.00;96357.47;10480390;28;20227;-48
2022/06/23 02:15:30;;;;;;;8.53;4.13;;;;;;;12.18;100.00;96366.81;10497577;28;20219;-49
2022/06/23 02:20:57;;;;;;;5.00;4.50;;;;;;;12.06;100.00;96382.13;10497004;22;20257;-52
2022/06/23 02:26:12;;;;;;;5.63;3.38;;;;;;;12.13;100.00;96379.66;10466087;28;20207;-51
2022/06/23 02:31:19;;;;;;;6.47;3.78;;;;;;;12.09;100.00;96384.41;10481322;28;20218;-56
2022/06/23 02:36:33;;;;;;;4.33;3.57;;;;;;;11.96;100.00;96389.44;10497331;28;20197;-55
2022/06/23 02:41:39;;;;;;;5.07;4.43;;;;;;;11.73;100.00;96381.47;10497165;28;20223;-56
2022/06/23 02:47:10;;;;;;;8.57;4.07;;;;;;;11.73;100.00;96379.69;10478850;28;20675;-55
2022/06/23 02:52:26;;;;;;;4.67;3.67;;;;;;;11.81;100.00;96376.19;10478837;28;20226;-56
2022/06/23 02:57:50;;;;;;;6.82;3.88;;;;;;;11.85;100.00;96387.16;10478523;28;20244;-53
2022/06/23 03:03:03;;;;;;;4.93;4.23;;;;;;;11.81;100.00;96385.84;10477834;28;20223;-55
2022/06/23 03:08:19;;;;;;;5.55;4.10;;;;;;;11.84;100.00;96398.63;10478168;28;20192;-55
2022/06/23 03:13:27;;;;;;;8.60;3.92;;;;;;;11.86;100.00;96405.34;10495590;28;20211;-54
2022/06/23 03:18:36;;;;;;;5.30;4.13;;;;;;;11.82;100.00;96408.50;10495089;28;20202;-57
2022/06/23 03:23:56;;;;;;;6.13;4.15;;;;;;;11.81;100.00;96409.47;10477305;28;20243;-56
2022/06/23 03:29:26;;;;;;;5.32;4.10;;;;;;;11.85;100.00;96408.16;10477196;28;20248;-51
2022/06/23 03:34:38;;;;;;;4.70;3.72;;;;;;;11.91;100.00;96413.56;10494774;28;20214;-52
2022/06/23 03:45:41;;;;;;;5.37;4.37;;;;;;;11.97;100.00;96427.81;10493974;28;20210;-51
2022/06/23 03:50:49;;;;;;;4.68;4.18;;;;;;;12.11;100.00;96428.88;10476390;28;20213;-57
2022/06/23 03:56:03;;;;;;;6.65;4.18;;;;;;;12.27;100.00;96433.22;10476516;28;20206;-57
2022/06/23 04:01:12;;;;;;;5.13;3.53;;;;;;;12.37;100.00;96433.00;10494079;28;20215;-57
2022/06/23 04:06:18;;;;;;;5.18;3.95;;;;;;;12.42;100.00;96439.38;10493932;28;20192;-57
2022/06/23 04:16:41;;;;;;;5.88;4.57;;;;;;;12.73;100.00;96437.66;10493320;28;20657;-53
2022/06/23 04:21:46;;;;;;;4.28;3.88;;;;;;;12.87;100.00;96451.84;10475507;28;20230;-53
2022/06/23 04:26:50;;;;;;;8.10;4.03;;;;;;;13.13;100.00;96449.63;10493621;28;20278;-52
2022/06/23 04:31:53;;;;;;;5.97;4.30;;;;;;;13.35;100.00;96462.94;10475731;28;20203;-52
2022/06/23 04:36:54;;;;;;;5.65;4.10;;;;;;;13.51;100.00;96456.69;10493202;28;20191;-52
2022/06/23 04:42:19;;;;;;;5.15;4.60;;;;;;;13.76;100.00;96459.84;10479689;28;20219;-52
2022/06/23 04:47:22;;;;;;;7.40;4.20;;;;;;;13.91;98.01;96454.56;10483687;28;20197;-53
2022/06/23 04:52:27;;;;;;;4.82;4.32;;;;;;;14.22;96.28;96454.31;10483601;28;20215;-52
2022/06/23 04:57:38;;;;;;;5.07;4.30;;;;;;;14.53;94.57;96461.16;10483221;28;20665;-52
2022/06/23 05:02:42;;;;;;;6.72;4.10;;;;;;;14.77;92.39;96454.69;10483021;28;20705;-52
2022/06/23 05:07:49;;;;;;;8.10;4.18;;;;;;;15.19;89.78;96468.06;10483082;28;20202;-54
2022/06/23 05:12:54;;;;;;;6.88;4.35;;;;;;;15.59;89.88;96460.38;10483127;28;20195;-58
2022/06/23 05:18:02;;;;;;;7.75;4.22;;;;;;;15.86;88.47;96460.53;10502322;28;20673;-56
2022/06/23 05:23:03;;;;;;;8.27;4.15;;;;;;;16.12;86.53;96451.09;10499743;28;20242;-53
2022/06/23 05:28:07;;;;;;;7.03;4.05;;;;;;;16.40;85.61;96459.75;10500125;28;20562;-52
2022/06/23 05:33:23;;;;;;;10.13;4.22;;;;;;;16.69;83.21;96447.19;10499520;28;20264;-52
2022/06/23 05:38:37;;;;;;;9.52;4.25;;;;;;;17.05;80.46;96448.66;10481717;28;20187;-55
2022/06/23 05:43:40;;;;;;;8.70;4.32;;;;;;;17.30;79.53;96442.72;10481179;28;20234;-53
2022/06/23 05:48:42;;;;;;;6.03;4.00;;;;;;;17.51;78.83;96441.69;10481502;28;20187;-53
2022/06/23 05:54:07;;;;;;;3.97;3.40;;;;;;;18.04;78.21;96443.41;10498536;28;20246;-53
2022/06/23 05:59:15;;;;;;;5.10;3.47;;;;;;;18.55;73.14;96388.63;10499073;28;20309;-56
2022/06/23 06:04:25;;;;;;;3.95;2.90;;;;;;;19.04;70.00;96359.69;10498485;28;20227;-54
2022/06/23 06:09:36;;;;;;;6.88;2.80;;;;;;;19.66;66.24;96317.09;10480447;28;20183;-55
2022/06/23 06:14:41;;;;;;;5.53;2.40;;;;;;;20.27;61.89;96275.38;10498503;28;20760;-54
2022/06/23 06:19:41;;;;;;;6.32;2.70;;;;;;;20.99;59.85;96263.72;10500596;28;20196;-56
2022/06/23 06:24:44;;;;;;;5.78;2.60;;;;;;;21.63;58.12;96246.91;10502814;28;20235;-55
2022/06/23 06:29:44;;;;;;;2.47;2.28;;;;;;;22.33;56.09;96236.94;10485229;28;20213;-53
2022/06/23 06:34:49;;;;;;;5.20;2.10;;;;;;;23.48;52.81;96201.59;10498573;28;20290;-55
2022/06/23 06:39:53;;;;;;;3.53;2.00;;;;;;;24.49;51.93;96209.97;10480253;28;20306;-58
2022/06/23 06:44:56;;;;;;;4.25;2.00;;;;;;;25.40;49.72;96197.31;10496793;28;20207;-57
2022/06/23 06:50:00;;;;;;;6.18;2.30;;;;;;;27.25;45.63;96157.94;10496776;28;20187;-56
2022/06/23 06:55:06;;;;;;;2.25;1.70;;;;;;;27.76;42.19;96104.63;10496497;28;20326;-57
2022/06/23 07:00:12;;;;;;;2.92;1.88;;;;;;;29.35;40.13;96106.69;10478345;28;20670;-57
2022/06/23 07:05:38;;;;;;;7.35;2.03;;;;;;;29.13;40.51;96124.22;10478515;28;20290;-57
2022/06/23 07:10:54;;;;;;;5.15;2.08;;;;;;;29.33;39.79;96116.97;10478255;28;20607;-57
2022/06/23 07:16:02;;;;;;;5.35;1.95;;;;;;;28.78;40.30;96131.69;10495152;28;20742;-54
2022/06/23 07:21:08;;;;;;;3.97;1.60;;;;;;;29.22;38.48;96086.66;10495270;28;20235;-58
2022/06/23 07:26:41;;;;;;;3.15;1.77;;;;;;;29.80;36.89;96095.47;10495281;28;20542;-57
2022/06/23 07:32:08;;;;;;;5.10;2.20;;;;;;;29.00;38.68;96109.56;10477257;28;20223;-58
2022/06/23 07:37:25;;;;;;;3.00;1.70;;;;;;;29.45;36.98;96098.44;10480814;28;20234;-54
2022/06/23 07:42:56;;;;;;;1.83;1.70;;;;;;;29.78;38.47;96149.75;10476584;28;20250;-59
2022/06/23 07:47:56;;;;;;;6.85;1.70;;;;;;;29.03;37.05;96072.31;10494493;28;20265;-55
2022/06/23 07:52:57;;;;;;;3.30;1.33;;;;;;;30.31;34.58;96054.06;10494216;28;20237;-59
2022/06/23 07:57:58;;;;;;;4.05;1.70;;;;;;;29.91;35.44;96066.41;10476170;28;20179;-58
2022/06/23 08:03:01;;;;;;;6.13;1.60;;;;;;;29.66;34.72;96036.03;10493983;28;20233;-60
2022/06/23 08:08:02;;;;;;;5.93;2.70;;;;;;;29.64;35.09;96052.53;10476026;28;20186;-59
2022/06/23 08:13:11;;;;;;;4.63;2.05;;;;;;;29.87;35.44;96077.81;10476002;28;20217;-58
2022/06/23 08:18:19;;;;;;;4.15;2.03;;;;;;;28.80;39.07;96153.75;10475002;28;20192;-58
2022/06/23 08:23:20;;;;;;;2.10;1.67;;;;;;;29.75;35.11;96080.16;10504382;22;20586;-53
2022/06/23 08:28:21;;;;;;;3.58;1.75;;;;;;;30.62;33.40;96064.31;10450618;28;20195;-53
2022/06/23 08:33:21;;;;;;;4.90;1.67;;;;;;;30.64;33.60;96059.38;10452189;28;20204;-56
2022/06/23 08:38:28;;;;;;;4.75;1.70;;;;;;;30.13;36.13;96130.59;10450771;28;20259;-55
2022/06/23 08:43:40;;;;;;;3.65;2.13;;;;;;;29.80;34.06;96049.56;10450776;28;20228;-54
2022/06/23 08:48:58;;;;;;;3.20;1.80;;;;;;;30.11;36.28;96128.22;10450831;28;20275;-54
2022/06/23 08:54:10;;;;;;;3.80;1.80;;;;;;;28.84;34.84;96024.59;10450613;28;20216;-51
2022/06/23 08:59:19;;;;;;;2.83;1.75;;;;;;;30.23;33.38;96057.44;10450540;28;20224;-52
2022/06/23 09:04:34;;;;;;;6.60;1.83;;;;;;;30.48;33.74;96079.75;10451461;28;20228;-57
2022/06/23 09:09:48;;;;;;;3.42;1.60;;;;;;;32.38;32.15;96099.00;10451671;28;20204;-53
2022/06/23 09:15:26;;;;;;;4.53;1.77;;;;;;;30.80;33.19;96037.44;10450010;28;20254;-53
2022/06/23 09:20:44;;;;;;;6.57;1.77;;;;;;;30.83;34.05;96078.22;10451465;28;20220;-52
2022/06/23 09:26:03;;;;;;;2.20;1.50;;;;;;;31.29;33.03;96076.44;10450084;28;20258;-57
2022/06/23 09:31:20;;;;;;;2.60;1.50;;;;;;;30.77;34.28;96082.91;10458740;28;20192;-51
2022/06/23 09:36:57;;;;;;;6.75;1.40;;;;;;;30.94;32.85;96049.03;10458218;28;20589;-54
2022/06/23 09:42:21;;;;;;;4.32;1.67;;;;;;;31.70;30.72;96021.34;10454150;28;20585;-54
2022/06/23 09:47:49;;;;;;;4.82;2.00;;;;;;;29.80;33.05;95982.91;10456386;28;20749;-57
2022/06/23 09:52:55;;;;;;;4.00;1.67;;;;;;;33.15;30.05;96058.84;10457836;28;20245;-58
2022/06/23 09:58:40;;;;;;;4.13;1.60;;;;;;;32.21;29.79;95978.56;10457490;28;20196;-58
2022/06/23 10:03:52;;;;;;;3.25;1.70;;;;;;;32.44;30.19;96000.94;10439282;28;20235;-57
2022/06/23 10:09:02;;;;;;;3.67;1.77;;;;;;;32.34;30.19;96006.63;10454307;28;20675;-59
2022/06/23 10:14:08;;;;;;;2.72;1.85;;;;;;;32.25;30.67;96012.03;10455614;28;20204;-57
2022/06/23 10:19:21;;;;;;;6.20;1.85;;;;;;;33.22;29.15;96007.63;10455843;28;20196;-58
2022/06/23 10:25:12;;;;;;;7.85;1.83;;;;;;;33.63;28.94;96011.72;10470819;28;20262;-57
2022/06/23 10:30:15;;;;;;;4.15;1.70;;;;;;;34.55;27.88;96006.91;10471095;28;20230;-58
2022/06/23 10:35:32;;;;;;;5.40;1.50;;;;;;;33.97;29.05;96014.66;10497014;28;20210;-58
2022/06/23 10:40:51;;;;;;;5.88;1.40;;;;;;;33.30;30.74;96031.22;10477773;28;20191;-54
2022/06/23 10:46:07;;;;;;;3.05;1.75;;;;;;;34.11;28.76;95977.22;10496850;28;20211;-59
2022/06/23 10:51:36;;;;;;;1.80;1.60;;;;;;;32.33;28.68;95897.41;10478597;28;20633;-56
2022/06/23 10:57:03;;;;;;;3.85;1.92;;;;;;;33.76;29.92;96020.81;10478860;28;20207;-57
2022/06/23 11:02:15;;;;;;;3.53;1.45;;;;;;;34.56;28.26;95994.91;10478309;28;20285;-57
2022/06/23 11:07:37;;;;;;;3.30;1.60;;;;;;;35.79;26.76;96000.19;10496132;28;20217;-58
2022/06/23 11:12:59;;;;;;;2.35;1.80;;;;;;;34.11;28.48;95945.38;10477769;28;20241;-58
2022/06/23 11:18:29;;;;;;;6.90;2.22;;;;;;;32.86;29.60;95930.00;10494917;28;20665;-53
2022/06/23 11:23:34;;;;;;;2.13;1.70;;;;;;;32.19;29.38;95910.28;10495336;28;20597;-56
2022/06/23 11:28:56;;;;;;;3.08;1.92;;;;;;;32.69;29.34;95928.88;10495038;28;20203;-55
2022/06/23 11:34:19;;;;;;;1.75;1.35;;;;;;;33.33;27.65;95873.13;10495043;28;20223;-57
2022/06/23 11:39:49;;;;;;;4.38;1.48;;;;;;;34.23;28.12;95941.16;10494767;28;20197;-59
2022/06/23 11:45:28;;;;;;;6.07;2.00;;;;;;;35.62;27.31;95987.50;10494562;28;20298;-57
2022/06/23 11:50:31;;;;;;;2.67;1.48;;;;;;;35.49;27.09;95962.16;10493270;28;20269;-57
2022/06/23 11:55:35;;;;;;;2.38;1.60;;;;;;;34.51;26.88;95873.50;10494259;28;20217;-58
2022/06/23 12:00:53;;;;;;;2.80;1.58;;;;;;;33.65;28.06;95884.50;10476295;28;20180;-58
2022/06/23 12:06:21;;;;;;;5.68;1.65;;;;;;;33.47;26.92;95817.81;10493768;28;20210;-58
2022/06/23 12:11:23;;;;;;;2.25;1.80;;;;;;;31.86;29.74;95859.19;10494061;28;20234;-59
2022/06/23 12:16:23;;;;;;;2.50;1.58;;;;;;;34.68;27.54;95934.34;10493090;28;20203;-59
2022/06/23 12:21:45;;;;;;;2.83;1.40;;;;;;;35.12;27.75;95943.75;10493968;28;20578;-58
2022/06/23 12:27:09;;;;;;;2.92;1.58;;;;;;;36.85;25.32;95927.53;10481597;28;20862;-58
2022/06/23 12:32:16;;;;;;;2.58;1.63;;;;;;;34.71;26.50;95820.19;10451963;28;20276;-59
2022/06/23 12:37:43;;;;;;;1.92;1.60;;;;;;;35.68;26.37;95901.69;10434166;28;20204;-56
2022/06/23 12:42:54;;;;;;;1.38;1.27;;;;;;;36.06;26.69;95931.38;10451823;28;20203;-58
2022/06/23 12:48:10;;;;;;;1.60;1.48;;;;;;;36.02;24.90;95839.69;10451575;28;20195;-56
2022/06/23 12:53:32;;;;;;;7.47;1.60;;;;;;;35.58;26.79;95910.31;10451560;28;20220;-58
2022/06/23 12:58:37;;;;;;;7.93;1.70;;;;;;;36.54;24.12;95844.38;10451349;28;20200;-58
2022/06/23 13:03:54;;;;;;;4.05;1.77;;;;;;;37.32;24.38;95889.78;10456659;28;20203;-58
2022/06/23 13:09:07;;;;;;;4.10;1.77;;;;;;;34.80;25.46;95807.31;10441387;28;20581;-57
2022/06/23 13:14:15;;;;;;;1.92;1.60;;;;;;;35.38;26.42;95858.31;10441575;28;20230;-57
2022/06/23 13:19:29;;;;;;;5.88;1.70;;;;;;;33.77;27.45;95821.38;10440685;28;20218;-56
2022/06/23 13:24:33;;;;;;;2.75;1.98;;;;;;;32.80;28.64;95823.56;10441184;28;20259;-58
2022/06/23 13:29:48;;;;;;;3.50;1.85;;;;;;;30.86;30.24;95779.28;10458180;28;20200;-56
2022/06/23 13:35:14;;;;;;;3.08;2.08;;;;;;;34.07;26.94;95827.53;10458224;28;20235;-57
2022/06/23 13:40:23;;;;;;;2.22;1.77;;;;;;;35.18;26.29;95847.13;10458026;28;20195;-57
2022/06/23 13:45:44;;;;;;;2.78;1.80;;;;;;;36.74;25.43;95904.56;10440327;28;20218;-59
2022/06/23 13:50:59;;;;;;;2.95;1.80;;;;;;;34.07;27.35;95808.53;10457840;28;20589;-55
2022/06/23 13:56:24;;;;;;;3.50;1.50;;;;;;;35.34;26.59;95857.38;10439951;28;20698;-59
2022/06/23 14:01:50;;;;;;;2.28;1.63;;;;;;;37.71;24.33;95879.88;10439930;28;20288;-57
2022/06/23 14:06:56;;;;;;;2.50;1.65;;;;;;;37.98;24.23;95878.19;10456961;28;20283;-56
2022/06/23 14:12:04;;;;;;;3.78;1.65;;;;;;;36.02;25.62;95826.06;10438994;28;20219;-56
2022/06/23 14:17:12;;;;;;;2.17;1.40;;;;;;;35.58;25.58;95785.00;10438307;28;20640;-58
2022/06/23 14:22:19;;;;;;;2.55;1.50;;;;;;;37.62;23.62;95838.25;10456738;28;20187;-57
2022/06/23 14:27:29;;;;;;;2.25;1.77;;;;;;;35.51;25.09;95764.53;10423861;23;20243;-55
2022/06/23 14:32:47;;;;;;;3.95;1.77;;;;;;;33.64;27.60;95792.47;10397308;28;20668;-56
2022/06/23 14:37:58;;;;;;;4.38;1.77;;;;;;;36.51;24.61;95806.06;10449920;28;20215;-56
2022/06/23 14:43:09;;;;;;;5.40;1.80;;;;;;;38.87;22.58;95837.47;10437938;28;20184;-55
2022/06/23 14:49:06;;;;;;;3.20;1.30;;;;;;;37.04;23.32;95743.16;10437993;28;20188;-53
2022/06/23 14:54:15;;;;;;;3.53;1.50;;;;;;;39.83;21.59;95831.28;10287957;28;20226;-54
2022/06/23 14:59:27;;;;;;;3.33;1.83;;;;;;;33.41;27.63;95739.22;10431859;28;20203;-53
2022/06/23 15:04:43;;;;;;;3.38;1.63;;;;;;;33.49;27.65;95764.75;10455255;28;20203;-54
2022/06/23 15:09:50;;;;;;;3.15;2.00;;;;;;;35.54;25.66;95802.00;10454752;28;20191;-58
2022/06/23 15:15:15;;;;;;;3.10;1.58;;;;;;;37.63;24.68;95845.31;10453988;28;20612;-56
2022/06/23 15:20:35;;;;;;;3.55;1.80;;;;;;;38.42;22.91;95784.16;10454402;28;20191;-56
2022/06/23 15:26:14;;;;;;;2.58;1.50;;;;;;;37.82;24.83;95839.91;10446131;28;20233;-56
2022/06/23 15:31:29;;;;;;;2.30;1.73;;;;;;;37.92;23.18;95767.50;10453709;28;20568;-59
2022/06/23 15:36:29;;;;;;;4.32;1.80;;;;;;;34.33;26.72;95722.47;10435786;28;20215;-57
2022/06/23 15:41:43;;;;;;;9.95;1.90;;;;;;;34.41;26.82;95770.53;10453497;28;20195;-58
2022/06/23 15:47:00;;;;;;;1.92;1.33;;;;;;;32.89;27.81;95704.97;10453299;28;20693;-54
2022/06/23 15:52:06;;;;;;;3.22;1.80;;;;;;;34.32;26.79;95753.50;10435440;28;20219;-57
2022/06/23 15:57:19;;;;;;;2.75;1.80;;;;;;;32.89;28.42;95734.03;10453006;28;20211;-52
2022/06/23 16:02:26;;;;;;;3.60;2.00;;;;;;;31.52;30.62;95748.84;10435516;28;20318;-57
2022/06/23 16:07:29;;;;;;;2.85;1.73;;;;;;;30.64;30.96;95743.06;10437816;28;20674;-56
2022/06/23 16:12:39;;;;;;;2.47;1.60;;;;;;;31.65;30.81;95792.09;10452308;28;20219;-54
2022/06/23 16:17:46;;;;;;;2.28;1.60;;;;;;;32.02;29.21;95748.44;10434100;28;20200;-57
2022/06/23 16:22:54;;;;;;;3.50;2.10;;;;;;;30.69;30.16;95723.22;10434796;28;20549;-54
2022/06/23 16:28:21;;;;;;;5.97;2.00;;;;;;;30.67;30.02;95725.44;10434220;28;20266;-57
2022/06/23 16:33:41;;;;;;;3.17;2.03;;;;;;;30.64;29.56;95699.00;10434163;28;20224;-53
2022/06/23 16:38:57;;;;;;;3.83;1.83;;;;;;;29.57;31.34;95724.72;10459351;28;20633;-56
2022/06/23 16:44:00;;;;;;;2.35;1.88;;;;;;;29.93;30.58;95713.94;10440885;28;20215;-58
2022/06/23 16:49:16;;;;;;;3.88;2.03;;;;;;;30.30;30.09;95730.13;10460594;28;20206;-58
2022/06/23 16:54:45;;;;;;;6.47;2.10;;;;;;;29.78;30.42;95700.78;10460774;28;20238;-57
2022/06/23 16:59:55;;;;;;;2.38;1.95;;;;;;;29.50;31.42;95725.94;10439263;28;20204;-54
2022/06/23 17:05:07;;;;;;;3.05;1.85;;;;;;;28.30;32.06;95700.63;10441881;28;20204;-52
2022/06/23 17:10:16;;;;;;;2.70;2.05;;;;;;;28.13;32.23;95713.84;10459489;28;20655;-55
2022/06/23 17:15:21;;;;;;;3.75;1.85;;;;;;;28.08;33.33;95744.34;10458765;28;20258;-54
2022/06/23 17:20:24;;;;;;;4.38;1.98;;;;;;;27.96;32.50;95733.22;10459208;28;20180;-54
2022/06/23 17:25:33;;;;;;;2.47;1.77;;;;;;;27.89;32.98;95752.41;10421024;28;20236;-52
2022/06/23 17:30:45;;;;;;;2.83;2.00;;;;;;;27.82;33.29;95751.97;10416611;28;20275;-53
2022/06/23 17:35:52;;;;;;;3.40;2.13;;;;;;;27.83;34.56;95807.41;10417357;28;20220;-53
2022/06/23 17:46:39;;;;;;;3.10;1.73;;;;;;;27.52;33.35;95756.66;10415337;28;20291;-56
2022/06/23 17:51:45;;;;;;;6.25;2.00;;;;;;;27.67;33.94;95772.63;10416735;28;20578;-56
2022/06/23 17:56:53;;;;;;;3.22;1.52;;;;;;;27.57;33.13;95756.59;10416321;28;20219;-56
2022/06/23 18:02:07;;;;;;;2.30;2.10;;;;;;;27.18;33.21;95752.19;10415337;28;20185;-55
2022/06/23 18:07:16;;;;;;;2.28;1.88;;;;;;;26.85;34.38;95779.69;10418845;28;20212;-56
2022/06/23 18:12:20;;;;;;;5.50;1.73;;;;;;;27.00;34.04;95783.31;10398211;28;20220;-57
2022/06/23 18:17:31;;;;;;;24.63;8.65;;;;;;;26.75;35.15;95814.72;10415116;28;20211;-54
2022/06/23 18:22:46;;;;;;;6.10;2.30;;;;;;;26.55;35.42;95807.59;10415727;28;20188;-54
2022/06/23 18:28:03;;;;;;;1.85;1.70;;;;;;;26.13;35.42;95790.19;10454408;28;20243;-54
2022/06/23 18:33:14;;;;;;;5.15;1.92;;;;;;;25.74;36.45;95810.50;10438560;28;20269;-57
2022/06/23 18:38:29;;;;;;;2.88;1.67;;;;;;;25.83;35.67;95808.03;10454725;28;20196;-59
2022/06/23 18:43:39;;;;;;;4.85;1.88;;;;;;;25.38;37.23;95836.66;10454856;28;20208;-58
2022/06/23 18:48:53;;;;;;;6.72;1.77;;;;;;;25.02;37.50;95831.34;10455433;28;20199;-54
2022/06/23 18:54:01;;;;;;;2.05;1.50;;;;;;;24.46;38.52;95846.31;10454296;28;20235;-53
2022/06/23 18:59:24;;;;;;;5.13;1.83;;;;;;;24.16;39.36;95869.28;10436325;28;20237;-55
2022/06/23 19:04:43;;;;;;;4.93;1.88;;;;;;;24.13;40.63;95922.53;10404028;28;20227;-55
2022/06/23 19:09:50;;;;;;;3.95;1.80;;;;;;;23.24;42.18;95941.03;10454589;28;20204;-53
2022/06/23 19:15:03;;;;;;;4.55;1.77;;;;;;;23.17;44.36;96018.75;10452874;28;20573;-53
2022/06/23 19:20:24;;;;;;;6.63;2.90;;;;;;;22.57;45.72;96039.19;10454409;28;20207;-53
2022/06/23 19:25:45;;;;;;;3.45;2.10;;;;;;;22.25;46.24;96047.84;10436005;28;20769;-53
2022/06/23 19:31:25;;;;;;;4.55;1.92;;;;;;;21.69;46.87;96055.88;10435883;28;20224;-52
2022/06/23 19:36:28;;;;;;;2.28;1.90;;;;;;;21.64;47.32;96079.75;10453485;28;20220;-52
2022/06/23 19:41:40;;;;;;;2.30;1.80;;;;;;;21.17;47.73;96075.50;10453618;28;20200;-53
2022/06/23 19:46:52;;;;;;;4.57;2.30;;;;;;;20.93;48.33;96088.13;10452013;28;20242;-52
2022/06/23 19:51:57;;;;;;;3.83;2.00;;;;;;;20.77;48.40;96095.81;10453630;28;20220;-58
2022/06/23 19:57:03;;;;;;;6.22;2.05;;;;;;;20.34;49.53;96098.88;10435139;28;20710;-55
2022/06/23 20:02:28;;;;;;;1.80;1.70;;;;;;;20.23;49.73;96098.69;10451811;28;20192;-55
2022/06/23 20:07:37;;;;;;;3.78;1.90;;;;;;;20.22;48.89;96088.28;10452515;28;20208;-53
2022/06/23 20:12:40;;;;;;;3.60;1.90;;;;;;;19.96;49.76;96101.78;10451359;28;20219;-56
2022/06/23 20:18:05;;;;;;;4.68;1.95;;;;;;;19.92;49.45;96095.34;10434160;28;20556;-57
2022/06/23 20:23:17;;;;;;;2.50;1.90;;;;;;;19.69;50.12;96103.25;10434579;28;20274;-57
2022/06/23 20:28:45;;;;;;;7.05;2.03;;;;;;;19.39;51.01;96110.25;10411346;22;20233;-55
2022/06/23 20:34:06;;;;;;;4.93;1.92;;;;;;;19.21;51.92;96132.34;10370209;28;20259;-53
2022/06/23 20:39:31;;;;;;;1.85;1.63;;;;;;;19.12;52.57;96139.00;10407700;28;20216;-56
2022/06/23 20:44:49;;;;;;;2.85;1.80;;;;;;;18.90;53.33;96141.34;10410783;28;20290;-55
2022/06/23 20:50:08;;;;;;;4.97;2.03;;;;;;;18.81;53.38;96148.78;10392741;28;20215;-56
2022/06/23 20:55:26;;;;;;;3.15;2.13;;;;;;;18.75;54.01;96143.56;10410716;28;20251;-51
2022/06/23 21:00:40;;;;;;;7.45;2.35;;;;;;;18.65;54.38;96163.47;10392741;28;20279;-57
2022/06/23 21:05:48;;;;;;;4.35;2.10;;;;;;;18.69;54.35;96161.16;10410339;28;20223;-52
2022/06/23 21:10:56;;;;;;;4.20;2.30;;;;;;;18.65;54.66;96168.75;10392325;28;20235;-57
2022/06/23 21:16:20;;;;;;;3.67;2.40;;;;;;;18.54;55.40;96180.91;10392117;28;20209;-54
2022/06/23 21:21:43;;;;;;;5.63;2.00;;;;;;;18.59;55.39;96166.16;10409941;28;20197;-52
2022/06/23 21:27:05;;;;;;;3.55;2.50;;;;;;;18.63;55.24;96170.81;10400215;28;20236;-52
2022/06/23 21:32:19;;;;;;;4.55;2.50;;;;;;;18.47;55.94;96179.38;10417401;28;20224;-54
2022/06/23 21:37:23;;;;;;;3.17;2.45;;;;;;;18.32;56.81;96188.47;10418156;28;20215;-50
2022/06/23 21:42:28;;;;;;;6.85;2.70;;;;;;;18.22;57.35;96203.25;10399293;28;20192;-54
2022/06/23 21:47:33;;;;;;;5.25;2.42;;;;;;;18.16;57.76;96194.31;10398996;28;20216;-54
2022/06/23 21:52:46;;;;;;;5.25;2.25;;;;;;;18.07;58.31;96192.97;10398871;28;20715;-53
2022/06/23 21:58:20;;;;;;;2.72;2.53;;;;;;;17.97;58.91;96194.25;10416608;28;20300;-52
2022/06/23 22:03:27;;;;;;;4.95;2.42;;;;;;;17.68;59.92;96208.13;10415886;28;20189;-53
2022/06/23 22:08:37;;;;;;;4.45;3.38;;;;;;;17.65;60.34;96215.44;10415705;28;20201;-51
2022/06/23 22:13:45;;;;;;;7.20;2.70;;;;;;;17.51;61.24;96218.41;10397890;28;20386;-54
2022/06/23 22:18:48;;;;;;;5.35;2.78;;;;;;;17.49;61.43;96215.97;10415233;28;20209;-51
2022/06/23 22:29:26;;;;;;;6.13;2.75;;;;;;;17.44;61.71;96197.25;10414821;28;20634;-50
2022/06/23 22:34:54;;;;;;;3.35;2.55;;;;;;;17.28;62.79;96204.66;10414424;28;20235;-50
2022/06/23 22:39:57;;;;;;;5.63;2.63;;;;;;;17.27;62.91;96213.66;10414624;28;20204;-50
2022/06/23 22:45:09;;;;;;;5.90;2.65;;;;;;;17.35;62.64;96194.06;10414285;28;20201;-50
2022/06/23 22:50:30;;;;;;;3.88;2.00;;;;;;;17.47;62.26;96191.53;10414083;28;20227;-50
2022/06/23 22:55:30;;;;;;;2.60;2.20;;;;;;;17.41;62.95;96195.03;10413701;28;20252;-50
2022/06/23 23:01:02;;;;;;;4.45;2.60;;;;;;;17.53;63.02;96188.00;10413644;28;20690;-50
2022/06/23 23:06:17;;;;;;;3.85;2.40;;;;;;;17.80;62.83;96193.16;10413593;28;20219;-50
2022/06/23 23:11:25;;;;;;;4.88;2.55;;;;;;;17.91;63.10;96183.72;10413267;28;20212;-51
2022/06/23 23:16:38;;;;;;;2.92;2.25;;;;;;;17.99;63.33;96200.19;10394913;28;20315;-49
2022/06/23 23:21:41;;;;;;;2.65;2.30;;;;;;;18.10;63.64;96192.53;10412919;28;20219;-49
2022/06/23 23:26:51;;;;;;;3.90;2.00;;;;;;;18.13;63.96;96198.22;10412485;28;20236;-53
2022/06/23 23:31:54;;;;;;;2.60;1.90;;;;;;;18.09;64.69;96210.28;10395543;28;20588;-49
2022/06/23 23:36:54;;;;;;;2.58;2.22;;;;;;;18.09;65.38;96202.34;10411981;28;20209;-50
2022/06/23 23:41:55;;;;;;;2.20;2.05;;;;;;;17.64;67.08;96219.13;10412369;28;20200;-53
2022/06/23 23:46:59;;;;;;;6.40;2.40;;;;;;;17.07;69.29;96220.84;10393656;28;20232;-54
2022/06/23 23:52:01;;;;;;;3.58;2.38;;;;;;;17.06;69.92;96222.69;10411819;28;20228;-51
2022/06/23 23:57:02;;;;;;;4.43;2.20;;;;;;;17.47;69.16;96204.75;10411609;28;20220;-51
